Fire Dart — FIRE — position and weather

sailwx.info

Track history (hours):
 
Tides and Currents Weather Stations Pressure Air Temp Water Temp Dewpoint Dewpoint Depression Visibility Wind Speed Wind Dir Waves Ship Positions

Fire Dart

Last reported at 2017-Nov-17 15:08 UTC. Time now 2017-Nov-17 19:43 UTC.
Position N 25°47' W 080°11'.

Length 14 m.

Type: High speed craft. MMSI: 235094361.

Date/timePositionNaut miles runAvg speedWind from/ knotsBaromVisibWave heightAir tempDewpointWater temp
2017-Nov-17 15:08N 25°47' W 080°11'1 4.6
2017-Nov-17 15:00N 25°47' W 080°10'4 8.3
2017-Nov-17 14:29N 25°51' W 080°09'0 0.0
2017-Nov-17 13:53N 25°51' W 080°09'512.1
2017-Nov-17 13:30N 25°47' W 080°11'0 0.3
2017-Nov-17 12:56N 25°47' W 080°11'0 0.0
2017-Nov-17 11:49N 25°47' W 080°11'820124.2
2017-Nov-17 05:13N 29°41' W 094°59'820144.6
2017-Nov-16 23:33N 25°47' W 080°11'0 0.0
2017-Nov-16 23:30N 25°47' W 080°11'0 0.0
2017-Nov-16 19:41N 25°47' W 080°11'0 0.0
2017-Nov-16 19:29N 25°47' W 080°11'0 0.0
2017-Nov-16 18:59N 25°47' W 080°11'0 0.0
2017-Nov-16 18:29N 25°47' W 080°11'0 0.0
2017-Nov-16 17:59N 25°47' W 080°11'0 0.0
2017-Nov-16 17:26N 25°47' W 080°11'0 0.0
2017-Nov-16 16:59N 25°47' W 080°11'0 0.0
2017-Nov-16 16:23N 25°47' W 080°11'0 0.0
2017-Nov-16 15:59N 25°47' W 080°11'0 0.0
2017-Nov-16 15:26N 25°47' W 080°11'0 0.0
2017-Nov-16 14:59N 25°47' W 080°11'0 0.0
2017-Nov-16 14:29N 25°47' W 080°11'0 0.0
2017-Nov-16 13:39N 25°47' W 080°11'0 0.0
2017-Nov-16 13:30N 25°47' W 080°11'0 0.0
2017-Nov-16 12:57N 25°47' W 080°11'0 0.0
2017-Nov-16 12:27N 25°47' W 080°11'0 0.0
2017-Nov-16 12:00N 25°47' W 080°11'0 0.0
2017-Nov-16 03:17N 25°47' W 080°11'1 3.1
2017-Nov-16 02:59N 25°46' W 080°12'0 0.1
2017-Nov-16 02:27N 25°46' W 080°12'1 0.9
2017-Nov-16 01:22N 25°47' W 080°11'0 1.1
2017-Nov-16 01:00N 25°47' W 080°11'4 2.7
2017-Nov-15 23:33N 25°44' W 080°14'0 0.2
2017-Nov-15 23:30N 25°44' W 080°14'8192677.0
2017-Nov-15 23:11N 29°41' W 094°59'0 0.0
2017-Nov-15 22:54N 29°41' W 094°59'8193326.5
2017-Nov-15 22:39N 25°44' W 080°14'8175951.8
2017-Nov-15 22:31N 29°35' W 094°58'5 9.1
2017-Nov-15 22:00N 29°33' W 095°03'2 3.1
2017-Nov-15 21:30N 29°33' W 095°01'8192129.5
2017-Nov-15 21:07N 25°44' W 080°14'8197084.5
2017-Nov-15 21:00N 29°33' W 095°01'81924156.9
2017-Nov-15 20:58N 25°44' W 080°14'0 0.0
2017-Nov-15 20:28N 25°44' W 080°14'8151853.5
2017-Nov-15 20:02N 29°34' W 094°56'138.0
2017-Nov-15 20:00N 29°35' W 094°57'81525521.3
2017-Nov-15 19:58N 25°44' W 080°14'0 0.0
2017-Nov-15 19:25N 25°44' W 080°14'0 0.1
2017-Nov-15 19:00N 25°44' W 080°14'4 2.9
2017-Nov-15 17:32N 25°47' W 080°11'0 0.4
2017-Nov-15 17:31N 25°47' W 080°11'1 1.1
2017-Nov-15 17:00N 25°47' W 080°10'1 0.1
2017-Nov-15 13:11N 25°47' W 080°11'82042.2
2017-Nov-14 17:45N 29°41' W 094°59'313.4
2017-Nov-14 17:29N 29°37' W 094°58'819169.1
2017-Nov-14 12:39N 25°47' W 080°11'0 0.0
2017-Nov-14 12:12N 25°47' W 080°11'0 0.0
2017-Nov-12 16:07N 25°47' W 080°11'1 5.7
2017-Nov-12 16:00N 25°46' W 080°11'8201286.5
2017-Nov-12 15:22N 29°41' W 094°59'819954.6
2017-Nov-12 14:31N 25°47' W 080°12'0 4.2
2017-Nov-12 14:30N 25°47' W 080°12'1 2.2
2017-Nov-12 13:57N 25°47' W 080°14'1 2.2
2017-Nov-12 13:29N 25°47' W 080°13'1 2.2
2017-Nov-12 12:54N 25°47' W 080°11'8201600.2
2017-Nov-12 12:23N 29°41' W 094°59'0 0.0
2017-Nov-12 09:23N 29°41' W 094°59'82056.0
2017-Nov-11 18:44N 25°47' W 080°11'0 2.0
2017-Nov-11 18:30N 25°47' W 080°11'1 1.5
2017-Nov-11 17:59N 25°46' W 080°11'0 0.1
2017-Nov-11 17:30N 25°46' W 080°11'1 1.0
2017-Nov-11 16:58N 25°47' W 080°11'0 0.0
2017-Nov-11 11:52N 25°47' W 080°11'0 0.0
2017-Nov-10 18:12N 25°47' W 080°11'0 1.1
2017-Nov-10 18:00N 25°47' W 080°11'0 0.1
2017-Nov-10 16:23N 25°47' W 080°11'2 5.9
2017-Nov-10 16:00N 25°46' W 080°09'2 3.5
2017-Nov-10 15:30N 25°47' W 080°10'0 0.8
2017-Nov-10 15:00N 25°47' W 080°11'0 0.2
2017-Nov-10 13:05N 25°47' W 080°11'0 0.0
2017-Nov-10 12:59N 25°47' W 080°11'0 0.0
2017-Nov-10 12:29N 25°47' W 080°11'0 0.0
2017-Nov-10 00:49N 25°47' W 080°11'0 0.0
2017-Nov-09 17:04N 25°47' W 080°11'0 0.4
2017-Nov-09 16:56N 25°47' W 080°11'1 1.2
2017-Nov-09 16:30N 25°47' W 080°11'2 4.8
2017-Nov-09 16:00N 25°46' W 080°09'0 0.4
2017-Nov-09 15:30N 25°46' W 080°09'2 1.5
2017-Nov-09 14:00N 25°47' W 080°11'1 0.4
2017-Nov-09 12:45N 25°47' W 080°11'0 0.0
2017-Nov-08 16:43N 25°47' W 080°11'311.9
2017-Nov-08 16:30N 25°44' W 080°12'2 4.5
2017-Nov-08 16:00N 25°44' W 080°14'0 0.1
2017-Nov-08 15:30N 25°44' W 080°14'0 0.4
2017-Nov-08 14:59N 25°44' W 080°14'0 0.0
2017-Nov-08 13:19N 25°44' W 080°14'3 9.5
2017-Nov-08 13:00N 25°45' W 080°11'2 2.1
2017-Nov-08 12:00N 25°47' W 080°11'0 0.0
2017-Nov-08 00:24N 25°47' W 080°11'820149.2
2017-Nov-07 18:54N 29°41' W 094°59'0 0.7
2017-Nov-07 18:30N 29°41' W 094°60'0 0.0
2017-Nov-07 17:59N 29°41' W 094°60'4 8.4
2017-Nov-07 17:30N 29°37' W 094°60'  
Track history (hours):
 
Tides and Currents Weather Stations Pressure Air Temp Water Temp Dewpoint Dewpoint Depression Visibility Wind Speed Wind Dir Waves Ship Positions

Fire Dart

Last reported at 2017-Nov-17 15:08 UTC. Time now 2017-Nov-17 19:43 UTC.
Position N 25°47' W 080°11'.

Length 14 m.

Type: High speed craft. MMSI: 235094361.

Date/timePositionNaut miles runAvg speedWind from/ knotsBaromVisibWave heightAir tempDewpointWater temp
2017-Nov-17 15:08N 25°47' W 080°11'1 4.6
2017-Nov-17 15:00N 25°47' W 080°10'4 8.3
2017-Nov-17 14:29N 25°51' W 080°09'0 0.0
2017-Nov-17 13:53N 25°51' W 080°09'512.1
2017-Nov-17 13:30N 25°47' W 080°11'0 0.3
2017-Nov-17 12:56N 25°47' W 080°11'0 0.0
2017-Nov-17 11:49N 25°47' W 080°11'820124.2
2017-Nov-17 05:13N 29°41' W 094°59'820144.6
2017-Nov-16 23:33N 25°47' W 080°11'0 0.0
2017-Nov-16 23:30N 25°47' W 080°11'0 0.0
2017-Nov-16 19:41N 25°47' W 080°11'0 0.0
2017-Nov-16 19:29N 25°47' W 080°11'0 0.0
2017-Nov-16 18:59N 25°47' W 080°11'0 0.0
2017-Nov-16 18:29N 25°47' W 080°11'0 0.0
2017-Nov-16 17:59N 25°47' W 080°11'0 0.0
2017-Nov-16 17:26N 25°47' W 080°11'0 0.0
2017-Nov-16 16:59N 25°47' W 080°11'0 0.0
2017-Nov-16 16:23N 25°47' W 080°11'0 0.0
2017-Nov-16 15:59N 25°47' W 080°11'0 0.0
2017-Nov-16 15:26N 25°47' W 080°11'0 0.0
2017-Nov-16 14:59N 25°47' W 080°11'0 0.0
2017-Nov-16 14:29N 25°47' W 080°11'0 0.0
2017-Nov-16 13:39N 25°47' W 080°11'0 0.0
2017-Nov-16 13:30N 25°47' W 080°11'0 0.0
2017-Nov-16 12:57N 25°47' W 080°11'0 0.0
2017-Nov-16 12:27N 25°47' W 080°11'0 0.0
2017-Nov-16 12:00N 25°47' W 080°11'0 0.0
2017-Nov-16 03:17N 25°47' W 080°11'1 3.1
2017-Nov-16 02:59N 25°46' W 080°12'0 0.1
2017-Nov-16 02:27N 25°46' W 080°12'1 0.9
2017-Nov-16 01:22N 25°47' W 080°11'0 1.1
2017-Nov-16 01:00N 25°47' W 080°11'4 2.7
2017-Nov-15 23:33N 25°44' W 080°14'0 0.2
2017-Nov-15 23:30N 25°44' W 080°14'8192677.0
2017-Nov-15 23:11N 29°41' W 094°59'0 0.0
2017-Nov-15 22:54N 29°41' W 094°59'8193326.5
2017-Nov-15 22:39N 25°44' W 080°14'8175951.8
2017-Nov-15 22:31N 29°35' W 094°58'5 9.1
2017-Nov-15 22:00N 29°33' W 095°03'2 3.1
2017-Nov-15 21:30N 29°33' W 095°01'8192129.5
2017-Nov-15 21:07N 25°44' W 080°14'8197084.5
2017-Nov-15 21:00N 29°33' W 095°01'81924156.9
2017-Nov-15 20:58N 25°44' W 080°14'0 0.0
2017-Nov-15 20:28N 25°44' W 080°14'8151853.5
2017-Nov-15 20:02N 29°34' W 094°56'138.0
2017-Nov-15 20:00N 29°35' W 094°57'81525521.3
2017-Nov-15 19:58N 25°44' W 080°14'0 0.0
2017-Nov-15 19:25N 25°44' W 080°14'0 0.1
2017-Nov-15 19:00N 25°44' W 080°14'4 2.9
2017-Nov-15 17:32N 25°47' W 080°11'0 0.4
2017-Nov-15 17:31N 25°47' W 080°11'1 1.1
2017-Nov-15 17:00N 25°47' W 080°10'1 0.1
2017-Nov-15 13:11N 25°47' W 080°11'82042.2
2017-Nov-14 17:45N 29°41' W 094°59'313.4
2017-Nov-14 17:29N 29°37' W 094°58'819169.1
2017-Nov-14 12:39N 25°47' W 080°11'0 0.0
2017-Nov-14 12:12N 25°47' W 080°11'0 0.0
2017-Nov-12 16:07N 25°47' W 080°11'1 5.7
2017-Nov-12 16:00N 25°46' W 080°11'8201286.5
2017-Nov-12 15:22N 29°41' W 094°59'819954.6
2017-Nov-12 14:31N 25°47' W 080°12'0 4.2
2017-Nov-12 14:30N 25°47' W 080°12'1 2.2
2017-Nov-12 13:57N 25°47' W 080°14'1 2.2
2017-Nov-12 13:29N 25°47' W 080°13'1 2.2
2017-Nov-12 12:54N 25°47' W 080°11'8201600.2
2017-Nov-12 12:23N 29°41' W 094°59'0 0.0
2017-Nov-12 09:23N 29°41' W 094°59'82056.0
2017-Nov-11 18:44N 25°47' W 080°11'0 2.0
2017-Nov-11 18:30N 25°47' W 080°11'1 1.5
2017-Nov-11 17:59N 25°46' W 080°11'0 0.1
2017-Nov-11 17:30N 25°46' W 080°11'1 1.0
2017-Nov-11 16:58N 25°47' W 080°11'0 0.0
2017-Nov-11 11:52N 25°47' W 080°11'0 0.0
2017-Nov-10 18:12N 25°47' W 080°11'0 1.1
2017-Nov-10 18:00N 25°47' W 080°11'0 0.1
2017-Nov-10 16:23N 25°47' W 080°11'2 5.9
2017-Nov-10 16:00N 25°46' W 080°09'2 3.5
2017-Nov-10 15:30N 25°47' W 080°10'0 0.8
2017-Nov-10 15:00N 25°47' W 080°11'0 0.2
2017-Nov-10 13:05N 25°47' W 080°11'0 0.0
2017-Nov-10 12:59N 25°47' W 080°11'0 0.0
2017-Nov-10 12:29N 25°47' W 080°11'0 0.0
2017-Nov-10 00:49N 25°47' W 080°11'0 0.0
2017-Nov-09 17:04N 25°47' W 080°11'0 0.4
2017-Nov-09 16:56N 25°47' W 080°11'1 1.2
2017-Nov-09 16:30N 25°47' W 080°11'2 4.8
2017-Nov-09 16:00N 25°46' W 080°09'0 0.4
2017-Nov-09 15:30N 25°46' W 080°09'2 1.5
2017-Nov-09 14:00N 25°47' W 080°11'1 0.4
2017-Nov-09 12:45N 25°47' W 080°11'0 0.0
2017-Nov-08 16:43N 25°47' W 080°11'311.9
2017-Nov-08 16:30N 25°44' W 080°12'2 4.5
2017-Nov-08 16:00N 25°44' W 080°14'0 0.1
2017-Nov-08 15:30N 25°44' W 080°14'0 0.4
2017-Nov-08 14:59N 25°44' W 080°14'0 0.0
2017-Nov-08 13:19N 25°44' W 080°14'3 9.5
2017-Nov-08 13:00N 25°45' W 080°11'2 2.1
2017-Nov-08 12:00N 25°47' W 080°11'0 0.0
2017-Nov-08 00:24N 25°47' W 080°11'820149.2
2017-Nov-07 18:54N 29°41' W 094°59'0 0.7
2017-Nov-07 18:30N 29°41' W 094°60'0 0.0
2017-Nov-07 17:59N 29°41' W 094°60'4 8.4
2017-Nov-07 17:30N 29°37' W 094°60'  

Dump ship's entire track history